SDG052 LIPZ-LICC
Flight info
| Callsign | SDG052 |
|---|---|
| Flight time | 1h 25m |
| Altitude | 31000 |
| Route | CHI6L/04R CHI DCT GAVRA DCT RITEB DCT NAPOX DCT TAGEL DCT VAKOR DCT PELEN DCT COBBA |
| Aircraft | B722/M-SDFGHRWY/C |
Departure
| Time | 2026-05-06 19:17 |
|---|---|
| Airport | Venice Marco Polo Airport (LIPZ) |
Arrival
| Time | 2026-05-06 20:42 |
|---|---|
| Airport | Catania-Fontanarossa Airport (LICC) |
| Time | Latitude | Longitude | Altitude | Speed | Heading |
|---|---|---|---|---|---|
| 2026-05-06 18:50 | 45.50660 | 12.34424 | 6 ft | 0 kts | 72° |
| 2026-05-06 18:55 | 45.50657 | 12.34410 | 6 ft | 2 kts | 77° |
| 2026-05-06 18:55 | 45.50655 | 12.34388 | 6 ft | 2 kts | 86° |
| 2026-05-06 18:55 | 45.50655 | 12.34366 | 6 ft | 2 kts | 95° |
| 2026-05-06 18:55 | 45.50657 | 12.34345 | 6 ft | 2 kts | 103° |
| 2026-05-06 18:56 | 45.50661 | 12.34324 | 7 ft | 2 kts | 111° |
| 2026-05-06 18:56 | 45.50668 | 12.34304 | 7 ft | 2 kts | 119° |
| 2026-05-06 18:56 | 45.50676 | 12.34286 | 7 ft | 2 kts | 127° |
| 2026-05-06 18:56 | 45.50684 | 12.34273 | 8 ft | 0 kts | 134° |
| 2026-05-06 18:57 | 45.50685 | 12.34272 | 8 ft | 0 kts | 134° |
| 2026-05-06 19:07 | 45.50682 | 12.34276 | 8 ft | 2 kts | 134° |
| 2026-05-06 19:07 | 45.50649 | 12.34326 | 6 ft | 10 kts | 132° |
| 2026-05-06 19:08 | 45.50597 | 12.34409 | 6 ft | 9 kts | 131° |
| 2026-05-06 19:08 | 45.50559 | 12.34472 | 9 ft | 8 kts | 131° |
| 2026-05-06 19:08 | 45.50512 | 12.34547 | 9 ft | 10 kts | 134° |
| 2026-05-06 19:08 | 45.50466 | 12.34616 | 10 ft | 8 kts | 128° |
| 2026-05-06 19:09 | 45.50419 | 12.34665 | 10 ft | 8 kts | 169° |
| 2026-05-06 19:09 | 45.50360 | 12.34642 | 11 ft | 9 kts | 208° |
| 2026-05-06 19:09 | 45.50312 | 12.34584 | 11 ft | 9 kts | 221° |
| 2026-05-06 19:09 | 45.50254 | 12.34506 | 11 ft | 13 kts | 224° |
| 2026-05-06 19:10 | 45.50178 | 12.34403 | 10 ft | 15 kts | 223° |
| 2026-05-06 19:10 | 45.50096 | 12.34299 | 10 ft | 15 kts | 220° |
| 2026-05-06 19:10 | 45.50010 | 12.34191 | 10 ft | 16 kts | 220° |
| 2026-05-06 19:10 | 45.49924 | 12.34082 | 11 ft | 16 kts | 222° |
| 2026-05-06 19:11 | 45.49839 | 12.33971 | 12 ft | 16 kts | 222° |
| 2026-05-06 19:11 | 45.49755 | 12.33856 | 12 ft | 16 kts | 222° |
| 2026-05-06 19:11 | 45.49664 | 12.33745 | 12 ft | 17 kts | 219° |
| 2026-05-06 19:11 | 45.49575 | 12.33635 | 12 ft | 12 kts | 221° |
| 2026-05-06 19:12 | 45.49519 | 12.33612 | 12 ft | 0 kts | 140° |
| 2026-05-06 19:16 | 45.49495 | 12.33639 | 12 ft | 8 kts | 140° |
| 2026-05-06 19:16 | 45.49450 | 12.33712 | 12 ft | 11 kts | 122° |
| 2026-05-06 19:16 | 45.49442 | 12.33803 | 12 ft | 7 kts | 50° |
| 2026-05-06 19:16 | 45.49488 | 12.33852 | 12 ft | 33 kts | 39° |
| 2026-05-06 19:17 | 45.49865 | 12.34338 | 12 ft | 109 kts | 42° |
| 2026-05-06 19:17 | 45.50569 | 12.35254 | 174 ft | 148 kts | 43° |
| 2026-05-06 19:17 | 45.51331 | 12.36285 | 697 ft | 155 kts | 47° |
| 2026-05-06 19:17 | 45.52112 | 12.37456 | 1217 ft | 164 kts | 44° |
| 2026-05-06 19:18 | 45.52970 | 12.38615 | 1774 ft | 174 kts | 41° |
| 2026-05-06 19:18 | 45.53928 | 12.39768 | 2467 ft | 176 kts | 37° |
| 2026-05-06 19:18 | 45.54903 | 12.40767 | 3226 ft | 171 kts | 34° |
| 2026-05-06 19:18 | 45.55856 | 12.41927 | 3645 ft | 190 kts | 47° |
| 2026-05-06 19:19 | 45.56592 | 12.43586 | 4300 ft | 198 kts | 79° |
| 2026-05-06 19:19 | 45.56689 | 12.45614 | 4902 ft | 208 kts | 91° |
| 2026-05-06 19:19 | 45.56659 | 12.47761 | 5602 ft | 217 kts | 93° |
| 2026-05-06 19:19 | 45.56434 | 12.49934 | 6279 ft | 221 kts | 121° |
| 2026-05-06 19:20 | 45.55376 | 12.51529 | 6914 ft | 218 kts | 150° |
| 2026-05-06 19:20 | 45.54032 | 12.52573 | 7517 ft | 219 kts | 164° |
| 2026-05-06 19:20 | 45.52521 | 12.52765 | 8104 ft | 216 kts | 185° |
| 2026-05-06 19:20 | 45.50984 | 12.52600 | 8747 ft | 217 kts | 186° |
| 2026-05-06 19:21 | 45.49462 | 12.52429 | 9379 ft | 217 kts | 186° |
| 2026-05-06 19:21 | 45.47946 | 12.52267 | 9990 ft | 217 kts | 187° |
| 2026-05-06 19:21 | 45.46382 | 12.52112 | 10486 ft | 223 kts | 186° |
| 2026-05-06 19:21 | 45.44714 | 12.51946 | 10552 ft | 250 kts | 186° |
| 2026-05-06 19:22 | 45.42888 | 12.51755 | 10885 ft | 265 kts | 186° |
| 2026-05-06 19:22 | 45.40965 | 12.51552 | 11416 ft | 273 kts | 186° |
| 2026-05-06 19:22 | 45.39029 | 12.51351 | 11983 ft | 278 kts | 187° |
| 2026-05-06 19:22 | 45.37059 | 12.51242 | 12567 ft | 283 kts | 182° |
| 2026-05-06 19:23 | 45.35051 | 12.51031 | 13173 ft | 283 kts | 192° |
| 2026-05-06 19:23 | 45.33077 | 12.50292 | 13520 ft | 294 kts | 201° |
| 2026-05-06 19:23 | 45.31131 | 12.49123 | 13937 ft | 302 kts | 207° |
| 2026-05-06 19:23 | 45.29219 | 12.47686 | 14433 ft | 308 kts | 211° |
| 2026-05-06 19:24 | 45.27344 | 12.46048 | 14962 ft | 312 kts | 213° |
| 2026-05-06 19:24 | 45.25498 | 12.44278 | 15540 ft | 314 kts | 215° |
| 2026-05-06 19:24 | 45.23694 | 12.42473 | 16144 ft | 315 kts | 216° |
| 2026-05-06 19:24 | 45.21880 | 12.40644 | 16733 ft | 316 kts | 216° |
| 2026-05-06 19:25 | 45.20041 | 12.38825 | 17277 ft | 318 kts | 215° |
| 2026-05-06 19:25 | 45.18189 | 12.37061 | 17778 ft | 320 kts | 214° |
| 2026-05-06 19:25 | 45.16288 | 12.35326 | 18267 ft | 323 kts | 213° |
| 2026-05-06 19:25 | 45.14339 | 12.33616 | 18750 ft | 325 kts | 212° |
| 2026-05-06 19:26 | 45.12388 | 12.31967 | 19221 ft | 326 kts | 212° |
| 2026-05-06 19:26 | 45.10395 | 12.30322 | 19669 ft | 329 kts | 211° |
| 2026-05-06 19:26 | 45.08369 | 12.28693 | 20106 ft | 331 kts | 209° |
| 2026-05-06 19:26 | 45.06213 | 12.27409 | 20528 ft | 334 kts | 201° |
| 2026-05-06 19:27 | 45.03958 | 12.26432 | 20949 ft | 336 kts | 198° |
| 2026-05-06 19:27 | 45.01653 | 12.25580 | 21339 ft | 339 kts | 197° |
| 2026-05-06 19:27 | 44.99341 | 12.24802 | 21738 ft | 341 kts | 196° |
| 2026-05-06 19:27 | 44.96957 | 12.24038 | 22146 ft | 342 kts | 196° |
| 2026-05-06 19:28 | 44.94623 | 12.23296 | 22522 ft | 343 kts | 196° |
| 2026-05-06 19:28 | 44.92232 | 12.22526 | 22889 ft | 344 kts | 196° |
| 2026-05-06 19:28 | 44.89905 | 12.21757 | 23235 ft | 346 kts | 197° |
| 2026-05-06 19:28 | 44.87541 | 12.20953 | 23586 ft | 347 kts | 197° |
| 2026-05-06 19:29 | 44.85200 | 12.20138 | 23922 ft | 348 kts | 197° |
| 2026-05-06 19:29 | 44.82809 | 12.19289 | 24254 ft | 349 kts | 198° |
| 2026-05-06 19:29 | 44.80452 | 12.18441 | 24577 ft | 351 kts | 198° |
| 2026-05-06 19:29 | 44.78062 | 12.17581 | 24890 ft | 352 kts | 198° |
| 2026-05-06 19:30 | 44.75655 | 12.16715 | 25202 ft | 353 kts | 198° |
| 2026-05-06 19:30 | 44.73280 | 12.15860 | 25476 ft | 355 kts | 198° |
| 2026-05-06 19:30 | 44.70848 | 12.14986 | 25740 ft | 357 kts | 198° |
| 2026-05-06 19:30 | 44.68418 | 12.14116 | 26019 ft | 358 kts | 198° |
| 2026-05-06 19:31 | 44.66019 | 12.13258 | 26278 ft | 359 kts | 198° |
| 2026-05-06 19:31 | 44.63573 | 12.12388 | 26533 ft | 361 kts | 198° |
| 2026-05-06 19:31 | 44.58670 | 12.10659 | 27044 ft | 363 kts | 198° |
| 2026-05-06 19:32 | 44.56205 | 12.09788 | 27278 ft | 364 kts | 198° |
| 2026-05-06 19:32 | 44.53735 | 12.08917 | 27485 ft | 366 kts | 198° |
| 2026-05-06 19:32 | 44.51236 | 12.08037 | 27694 ft | 367 kts | 198° |
| 2026-05-06 19:32 | 44.48685 | 12.07139 | 27885 ft | 369 kts | 198° |
| 2026-05-06 19:33 | 44.46150 | 12.06250 | 28106 ft | 370 kts | 198° |
| 2026-05-06 19:33 | 44.43637 | 12.05368 | 28319 ft | 371 kts | 198° |
| 2026-05-06 19:33 | 44.41147 | 12.04491 | 28521 ft | 372 kts | 198° |
| 2026-05-06 19:33 | 44.38607 | 12.03596 | 28708 ft | 373 kts | 198° |
| 2026-05-06 19:34 | 44.36063 | 12.02707 | 28901 ft | 374 kts | 198° |
| 2026-05-06 19:34 | 44.33536 | 12.01824 | 29065 ft | 375 kts | 198° |
| 2026-05-06 19:34 | 44.30975 | 12.00928 | 29247 ft | 376 kts | 198° |
| 2026-05-06 19:34 | 44.28430 | 12.00033 | 29409 ft | 378 kts | 198° |
| 2026-05-06 19:35 | 44.25851 | 11.99129 | 29600 ft | 378 kts | 198° |
| 2026-05-06 19:35 | 44.23297 | 11.98242 | 29736 ft | 380 kts | 198° |
| 2026-05-06 19:35 | 44.20719 | 11.97345 | 29884 ft | 381 kts | 198° |
| 2026-05-06 19:35 | 44.18122 | 11.96439 | 30027 ft | 382 kts | 198° |
| 2026-05-06 19:36 | 44.15538 | 11.95537 | 30170 ft | 383 kts | 198° |
| 2026-05-06 19:36 | 44.12941 | 11.94632 | 30334 ft | 384 kts | 198° |
| 2026-05-06 19:36 | 44.10312 | 11.93720 | 30491 ft | 384 kts | 198° |
| 2026-05-06 19:36 | 44.07737 | 11.92827 | 30647 ft | 385 kts | 199° |
| 2026-05-06 19:37 | 44.05112 | 11.91920 | 30789 ft | 385 kts | 199° |
| 2026-05-06 19:37 | 44.02458 | 11.91001 | 30890 ft | 387 kts | 199° |
| 2026-05-06 19:37 | 43.97150 | 11.89163 | 30936 ft | 390 kts | 199° |
| 2026-05-06 19:38 | 43.91765 | 11.87300 | 30928 ft | 394 kts | 199° |
| 2026-05-06 19:38 | 43.86412 | 11.85451 | 30925 ft | 398 kts | 199° |
| 2026-05-06 19:39 | 43.80947 | 11.83567 | 30925 ft | 404 kts | 198° |
| 2026-05-06 19:39 | 43.78130 | 11.83194 | 30928 ft | 416 kts | 183° |
| 2026-05-06 19:39 | 43.75199 | 11.83745 | 30936 ft | 425 kts | 175° |
| 2026-05-06 19:40 | 43.69389 | 11.85591 | 30950 ft | 430 kts | 174° |
| 2026-05-06 19:40 | 43.63487 | 11.87182 | 30955 ft | 434 kts | 176° |
| 2026-05-06 19:41 | 43.57453 | 11.88715 | 30955 ft | 439 kts | 175° |
| 2026-05-06 19:41 | 43.51333 | 11.90460 | 30957 ft | 447 kts | 174° |
| 2026-05-06 19:42 | 43.45181 | 11.92392 | 30960 ft | 455 kts | 173° |
| 2026-05-06 19:42 | 43.38951 | 11.94416 | 30962 ft | 462 kts | 173° |
| 2026-05-06 19:43 | 43.32621 | 11.96462 | 30964 ft | 468 kts | 173° |
| 2026-05-06 19:43 | 43.26188 | 11.98504 | 30966 ft | 473 kts | 173° |
| 2026-05-06 19:44 | 43.19704 | 12.00530 | 30967 ft | 478 kts | 173° |
| 2026-05-06 19:44 | 43.13256 | 12.03399 | 30977 ft | 491 kts | 162° |
| 2026-05-06 19:45 | 43.06907 | 12.07188 | 30990 ft | 493 kts | 164° |
| 2026-05-06 19:45 | 43.00461 | 12.10415 | 30996 ft | 491 kts | 167° |
| 2026-05-06 19:46 | 42.93899 | 12.13292 | 30994 ft | 491 kts | 168° |
| 2026-05-06 19:46 | 42.87343 | 12.16163 | 30995 ft | 493 kts | 168° |
| 2026-05-06 19:47 | 42.80829 | 12.19128 | 30994 ft | 495 kts | 167° |
| 2026-05-06 19:47 | 42.74257 | 12.22185 | 30993 ft | 496 kts | 167° |
| 2026-05-06 19:48 | 42.67635 | 12.25269 | 30993 ft | 496 kts | 167° |
| 2026-05-06 19:48 | 42.61044 | 12.28321 | 30993 ft | 497 kts | 167° |
| 2026-05-06 19:49 | 42.54448 | 12.31358 | 30992 ft | 494 kts | 167° |
| 2026-05-06 19:49 | 42.47887 | 12.34371 | 30997 ft | 492 kts | 167° |
| 2026-05-06 19:50 | 42.41326 | 12.37378 | 31005 ft | 490 kts | 167° |
| 2026-05-06 19:50 | 42.34808 | 12.40357 | 31012 ft | 488 kts | 167° |
| 2026-05-06 19:51 | 42.28328 | 12.43317 | 31014 ft | 487 kts | 167° |
| 2026-05-06 19:51 | 42.21843 | 12.46263 | 31017 ft | 486 kts | 167° |
| 2026-05-06 19:52 | 42.15361 | 12.49202 | 31020 ft | 485 kts | 167° |
| 2026-05-06 19:52 | 42.08877 | 12.52140 | 31020 ft | 484 kts | 167° |
| 2026-05-06 19:53 | 42.02407 | 12.55067 | 31020 ft | 484 kts | 167° |
| 2026-05-06 19:53 | 41.95967 | 12.57967 | 31020 ft | 483 kts | 167° |
| 2026-05-06 19:54 | 41.89517 | 12.60864 | 31019 ft | 483 kts | 167° |
| 2026-05-06 19:54 | 41.83033 | 12.63788 | 31015 ft | 484 kts | 167° |
| 2026-05-06 19:55 | 41.76580 | 12.66687 | 31012 ft | 484 kts | 167° |
| 2026-05-06 19:55 | 41.70100 | 12.69581 | 31016 ft | 483 kts | 167° |
| 2026-05-06 19:56 | 41.63586 | 12.72490 | 31020 ft | 483 kts | 167° |
| 2026-05-06 19:56 | 41.57095 | 12.75386 | 31018 ft | 483 kts | 167° |
| 2026-05-06 19:57 | 41.50603 | 12.78274 | 31008 ft | 483 kts | 167° |
| 2026-05-06 19:57 | 41.44117 | 12.81138 | 31002 ft | 483 kts | 167° |
| 2026-05-06 19:58 | 41.37605 | 12.84019 | 31005 ft | 483 kts | 167° |
| 2026-05-06 19:58 | 41.31055 | 12.86926 | 31010 ft | 483 kts | 167° |
| 2026-05-06 19:59 | 41.24517 | 12.89814 | 31010 ft | 483 kts | 167° |
| 2026-05-06 19:59 | 41.18003 | 12.92674 | 31002 ft | 483 kts | 167° |
| 2026-05-06 20:00 | 41.11487 | 12.95531 | 30992 ft | 483 kts | 167° |
| 2026-05-06 20:00 | 41.04946 | 12.98401 | 30994 ft | 483 kts | 167° |
| 2026-05-06 20:01 | 40.98405 | 13.01265 | 30999 ft | 483 kts | 167° |
| 2026-05-06 20:01 | 40.91868 | 13.04118 | 31002 ft | 483 kts | 167° |
| 2026-05-06 20:02 | 40.85345 | 13.06959 | 31006 ft | 484 kts | 167° |
| 2026-05-06 20:02 | 40.78818 | 13.09793 | 31009 ft | 484 kts | 167° |
| 2026-05-06 20:03 | 40.72232 | 13.12645 | 31033 ft | 484 kts | 167° |
| 2026-05-06 20:03 | 40.65731 | 13.15455 | 31047 ft | 484 kts | 167° |
| 2026-05-06 20:04 | 40.59138 | 13.18293 | 31045 ft | 485 kts | 167° |
| 2026-05-06 20:04 | 40.52580 | 13.21121 | 31047 ft | 485 kts | 167° |
| 2026-05-06 20:05 | 40.46017 | 13.23950 | 31047 ft | 486 kts | 167° |
| 2026-05-06 20:05 | 40.39394 | 13.26795 | 31047 ft | 486 kts | 167° |
| 2026-05-06 20:06 | 40.32847 | 13.29600 | 31047 ft | 486 kts | 167° |
| 2026-05-06 20:06 | 40.26304 | 13.32786 | 31047 ft | 490 kts | 162° |
| 2026-05-06 20:07 | 40.19937 | 13.36539 | 31047 ft | 492 kts | 160° |
| 2026-05-06 20:07 | 40.13562 | 13.40450 | 31047 ft | 493 kts | 160° |
| 2026-05-06 20:08 | 40.07170 | 13.44297 | 31047 ft | 493 kts | 161° |
| 2026-05-06 20:08 | 40.00787 | 13.48053 | 31047 ft | 493 kts | 161° |
| 2026-05-06 20:09 | 39.94362 | 13.51788 | 31047 ft | 493 kts | 161° |
| 2026-05-06 20:09 | 39.87967 | 13.55514 | 31048 ft | 494 kts | 161° |
| 2026-05-06 20:10 | 39.81548 | 13.59271 | 31047 ft | 494 kts | 161° |
| 2026-05-06 20:10 | 39.75145 | 13.63024 | 31047 ft | 495 kts | 161° |
| 2026-05-06 20:11 | 39.68726 | 13.66772 | 31045 ft | 495 kts | 161° |
| 2026-05-06 20:11 | 39.62293 | 13.70511 | 31017 ft | 496 kts | 161° |
| 2026-05-06 20:12 | 39.55803 | 13.74273 | 30983 ft | 496 kts | 161° |
| 2026-05-06 20:12 | 39.49315 | 13.78018 | 30972 ft | 496 kts | 161° |
| 2026-05-06 20:13 | 39.42837 | 13.81759 | 30967 ft | 496 kts | 161° |
| 2026-05-06 20:13 | 39.36366 | 13.85488 | 30943 ft | 497 kts | 161° |
| 2026-05-06 20:14 | 39.29883 | 13.89215 | 30934 ft | 497 kts | 161° |
| 2026-05-06 20:14 | 39.23399 | 13.92938 | 30939 ft | 496 kts | 161° |
| 2026-05-06 20:15 | 39.16925 | 13.96648 | 30962 ft | 496 kts | 161° |
| 2026-05-06 20:15 | 39.10508 | 14.00319 | 31015 ft | 495 kts | 160° |
| 2026-05-06 20:16 | 39.04083 | 14.03974 | 31007 ft | 496 kts | 160° |
| 2026-05-06 20:16 | 38.97617 | 14.07658 | 31003 ft | 497 kts | 160° |
| 2026-05-06 20:17 | 38.91215 | 14.11309 | 31005 ft | 498 kts | 160° |
| 2026-05-06 20:17 | 38.84772 | 14.14979 | 31016 ft | 498 kts | 159° |
| 2026-05-06 20:18 | 38.78350 | 14.18812 | 30778 ft | 491 kts | 158° |
| 2026-05-06 20:18 | 38.75184 | 14.20749 | 30110 ft | 488 kts | 158° |
| 2026-05-06 20:18 | 38.72101 | 14.22641 | 29476 ft | 468 kts | 158° |
| 2026-05-06 20:19 | 38.69239 | 14.24412 | 28857 ft | 436 kts | 158° |
| 2026-05-06 20:19 | 38.66566 | 14.26076 | 28232 ft | 405 kts | 158° |
| 2026-05-06 20:19 | 38.64079 | 14.27624 | 27604 ft | 376 kts | 158° |
| 2026-05-06 20:19 | 38.61712 | 14.29087 | 27001 ft | 367 kts | 159° |
| 2026-05-06 20:20 | 38.59346 | 14.30520 | 26390 ft | 370 kts | 159° |
| 2026-05-06 20:20 | 38.56979 | 14.31932 | 25786 ft | 373 kts | 159° |
| 2026-05-06 20:20 | 38.54573 | 14.33355 | 25177 ft | 376 kts | 159° |
| 2026-05-06 20:20 | 38.52143 | 14.34793 | 24631 ft | 376 kts | 159° |
| 2026-05-06 20:21 | 38.49717 | 14.36239 | 24123 ft | 376 kts | 159° |
| 2026-05-06 20:21 | 38.47323 | 14.37670 | 23619 ft | 376 kts | 159° |
| 2026-05-06 20:21 | 38.44908 | 14.39119 | 23111 ft | 376 kts | 159° |
| 2026-05-06 20:21 | 38.42490 | 14.40578 | 22601 ft | 376 kts | 159° |
| 2026-05-06 20:22 | 38.40096 | 14.42031 | 22095 ft | 375 kts | 159° |
| 2026-05-06 20:22 | 38.37704 | 14.43486 | 21588 ft | 375 kts | 159° |
| 2026-05-06 20:22 | 38.35302 | 14.44945 | 21078 ft | 374 kts | 160° |
| 2026-05-06 20:22 | 38.32872 | 14.46375 | 20564 ft | 373 kts | 161° |
| 2026-05-06 20:23 | 38.30477 | 14.47757 | 20057 ft | 372 kts | 161° |
| 2026-05-06 20:23 | 38.28078 | 14.49127 | 19531 ft | 361 kts | 161° |
| 2026-05-06 20:23 | 38.25869 | 14.50402 | 19009 ft | 331 kts | 162° |
| 2026-05-06 20:23 | 38.23751 | 14.51626 | 18508 ft | 326 kts | 162° |
| 2026-05-06 20:24 | 38.21624 | 14.52830 | 17997 ft | 328 kts | 163° |
| 2026-05-06 20:24 | 38.19500 | 14.54007 | 17494 ft | 330 kts | 163° |
| 2026-05-06 20:24 | 38.17323 | 14.55187 | 16983 ft | 332 kts | 163° |
| 2026-05-06 20:24 | 38.15151 | 14.56354 | 16476 ft | 334 kts | 163° |
| 2026-05-06 20:25 | 38.12969 | 14.57529 | 15969 ft | 336 kts | 162° |
| 2026-05-06 20:25 | 38.10757 | 14.58733 | 15457 ft | 337 kts | 162° |
| 2026-05-06 20:25 | 38.08609 | 14.59921 | 14938 ft | 325 kts | 161° |
| 2026-05-06 20:25 | 38.06599 | 14.61069 | 14413 ft | 297 kts | 161° |
| 2026-05-06 20:26 | 38.04721 | 14.62164 | 13905 ft | 288 kts | 161° |
| 2026-05-06 20:26 | 38.02862 | 14.63236 | 13403 ft | 293 kts | 160° |
| 2026-05-06 20:26 | 38.00948 | 14.64326 | 12895 ft | 297 kts | 160° |
| 2026-05-06 20:26 | 37.99028 | 14.65408 | 12392 ft | 301 kts | 161° |
| 2026-05-06 20:27 | 37.97044 | 14.66499 | 11880 ft | 304 kts | 160° |
| 2026-05-06 20:27 | 37.95052 | 14.67596 | 11370 ft | 307 kts | 160° |
| 2026-05-06 20:27 | 37.93044 | 14.68705 | 10862 ft | 311 kts | 159° |
| 2026-05-06 20:27 | 37.91027 | 14.69821 | 10361 ft | 313 kts | 158° |
| 2026-05-06 20:28 | 37.89020 | 14.70942 | 10100 ft | 313 kts | 158° |
| 2026-05-06 20:28 | 37.86974 | 14.72105 | 10031 ft | 320 kts | 157° |
| 2026-05-06 20:28 | 37.85048 | 14.73590 | 9999 ft | 324 kts | 137° |
| 2026-05-06 20:28 | 37.83621 | 14.75913 | 9997 ft | 323 kts | 134° |
| 2026-05-06 20:29 | 37.81801 | 14.77633 | 10002 ft | 319 kts | 153° |
| 2026-05-06 20:29 | 37.79745 | 14.78921 | 10004 ft | 320 kts | 157° |
| 2026-05-06 20:29 | 37.77599 | 14.79780 | 10002 ft | 317 kts | 177° |
| 2026-05-06 20:29 | 37.75386 | 14.79320 | 10009 ft | 313 kts | 203° |
| 2026-05-06 20:30 | 37.73656 | 14.77704 | 10002 ft | 302 kts | 229° |
| 2026-05-06 20:30 | 37.72129 | 14.72943 | 9982 ft | 279 kts | 259° |
| 2026-05-06 20:30 | 37.71465 | 14.70654 | 9962 ft | 261 kts | 240° |
| 2026-05-06 20:31 | 37.70523 | 14.68722 | 9941 ft | 247 kts | 224° |
| 2026-05-06 20:31 | 37.69101 | 14.67506 | 9910 ft | 232 kts | 203° |
| 2026-05-06 20:31 | 37.67591 | 14.66812 | 9876 ft | 220 kts | 196° |
| 2026-05-06 20:31 | 37.66080 | 14.66390 | 9711 ft | 213 kts | 187° |
| 2026-05-06 20:32 | 37.64566 | 14.66228 | 9417 ft | 212 kts | 181° |
| 2026-05-06 20:32 | 37.63038 | 14.66273 | 9024 ft | 216 kts | 177° |
| 2026-05-06 20:32 | 37.61498 | 14.66514 | 8640 ft | 218 kts | 169° |
| 2026-05-06 20:32 | 37.60006 | 14.66926 | 8494 ft | 211 kts | 167° |
| 2026-05-06 20:33 | 37.58552 | 14.67337 | 8352 ft | 204 kts | 168° |
| 2026-05-06 20:33 | 37.57156 | 14.67733 | 8166 ft | 200 kts | 167° |
| 2026-05-06 20:33 | 37.55784 | 14.68129 | 7983 ft | 195 kts | 167° |
| 2026-05-06 20:33 | 37.54434 | 14.68474 | 7774 ft | 192 kts | 170° |
| 2026-05-06 20:34 | 37.53087 | 14.68747 | 7530 ft | 192 kts | 171° |
| 2026-05-06 20:34 | 37.51727 | 14.68971 | 7267 ft | 192 kts | 173° |
| 2026-05-06 20:34 | 37.50350 | 14.69112 | 7006 ft | 192 kts | 177° |
| 2026-05-06 20:34 | 37.48974 | 14.69163 | 6742 ft | 192 kts | 178° |
| 2026-05-06 20:35 | 37.47626 | 14.69194 | 6566 ft | 183 kts | 178° |
| 2026-05-06 20:35 | 37.46357 | 14.69216 | 6358 ft | 177 kts | 178° |
| 2026-05-06 20:35 | 37.45126 | 14.69290 | 6079 ft | 172 kts | 161° |
| 2026-05-06 20:35 | 37.44214 | 14.70259 | 5697 ft | 174 kts | 113° |
| 2026-05-06 20:36 | 37.44046 | 14.71819 | 5370 ft | 180 kts | 90° |
| 2026-05-06 20:36 | 37.44089 | 14.73452 | 5128 ft | 182 kts | 90° |
| 2026-05-06 20:36 | 37.44144 | 14.75091 | 4896 ft | 183 kts | 90° |
| 2026-05-06 20:36 | 37.44207 | 14.76711 | 4705 ft | 174 kts | 89° |
| 2026-05-06 20:37 | 37.44282 | 14.78208 | 4466 ft | 166 kts | 89° |
| 2026-05-06 20:37 | 37.44368 | 14.79675 | 4189 ft | 162 kts | 88° |
| 2026-05-06 20:37 | 37.44465 | 14.81106 | 3919 ft | 156 kts | 88° |
| 2026-05-06 20:37 | 37.44568 | 14.82479 | 3673 ft | 152 kts | 87° |
| 2026-05-06 20:38 | 37.44678 | 14.83815 | 3445 ft | 147 kts | 86° |
| 2026-05-06 20:38 | 37.44793 | 14.85120 | 3238 ft | 146 kts | 86° |
| 2026-05-06 20:38 | 37.44907 | 14.86424 | 3066 ft | 149 kts | 86° |
| 2026-05-06 20:38 | 37.45029 | 14.87773 | 2884 ft | 153 kts | 85° |
| 2026-05-06 20:39 | 37.45156 | 14.89165 | 2676 ft | 156 kts | 85° |
| 2026-05-06 20:39 | 37.45282 | 14.90562 | 2452 ft | 159 kts | 85° |
| 2026-05-06 20:39 | 37.45407 | 14.91990 | 2207 ft | 158 kts | 85° |
| 2026-05-06 20:39 | 37.45530 | 14.93380 | 1969 ft | 154 kts | 85° |
| 2026-05-06 20:40 | 37.45650 | 14.94745 | 1743 ft | 150 kts | 84° |
| 2026-05-06 20:40 | 37.45764 | 14.96053 | 1538 ft | 145 kts | 84° |
| 2026-05-06 20:40 | 37.45866 | 14.97338 | 1334 ft | 141 kts | 83° |
| 2026-05-06 20:40 | 37.45962 | 14.98594 | 1139 ft | 139 kts | 82° |
| 2026-05-06 20:41 | 37.46077 | 14.99822 | 955 ft | 139 kts | 81° |
| 2026-05-06 20:41 | 37.46199 | 15.01079 | 767 ft | 141 kts | 81° |
| 2026-05-06 20:41 | 37.46299 | 15.02346 | 616 ft | 141 kts | 84° |
| 2026-05-06 20:41 | 37.46363 | 15.03616 | 418 ft | 145 kts | 81° |
| 2026-05-06 20:42 | 37.46531 | 15.04925 | 158 ft | 148 kts | 81° |
| 2026-05-06 20:42 | 37.46640 | 15.06198 | 37 ft | 130 kts | 83° |
| 2026-05-06 20:42 | 37.46732 | 15.07213 | 32 ft | 98 kts | 84° |
| 2026-05-06 20:42 | 37.46788 | 15.07916 | 32 ft | 45 kts | 84° |
| 2026-05-06 20:43 | 37.46827 | 15.08056 | 32 ft | 6 kts | 44° |
| 2026-05-06 20:43 | 37.46849 | 15.08071 | 32 ft | 3 kts | 12° |
| 2026-05-06 20:43 | 37.46881 | 15.08076 | 32 ft | 5 kts | 6° |
| 2026-05-06 20:43 | 37.46900 | 15.08076 | 32 ft | 0 kts | 336° |
| 2026-05-06 20:44 | 37.46917 | 15.08066 | 32 ft | 8 kts | 330° |
| 2026-05-06 20:44 | 37.46952 | 15.07983 | 32 ft | 12 kts | 269° |
| 2026-05-06 20:44 | 37.46945 | 15.07868 | 33 ft | 13 kts | 265° |
| 2026-05-06 20:45 | 37.46936 | 15.07749 | 34 ft | 13 kts | 264° |
| 2026-05-06 20:45 | 37.46926 | 15.07624 | 34 ft | 14 kts | 263° |
| 2026-05-06 20:45 | 37.46914 | 15.07489 | 33 ft | 15 kts | 264° |
| 2026-05-06 20:45 | 37.46901 | 15.07344 | 33 ft | 16 kts | 264° |
| 2026-05-06 20:46 | 37.46890 | 15.07194 | 33 ft | 17 kts | 264° |
| 2026-05-06 20:46 | 37.46881 | 15.07084 | 33 ft | 12 kts | 264° |
| 2026-05-06 20:46 | 37.46872 | 15.06969 | 33 ft | 13 kts | 264° |
| 2026-05-06 20:46 | 37.46862 | 15.06850 | 33 ft | 12 kts | 268° |
| 2026-05-06 20:47 | 37.46890 | 15.06785 | 34 ft | 6 kts | 320° |
| 2026-05-06 20:47 | 37.46916 | 15.06769 | 34 ft | 0 kts | 349° |